LYNI

Nis Airport

Nis, Serbia
TAF LYNI 171100Z 1712/1812 11004KT 4000 BR SCT015 BKN027 TXM01/1713Z TNM04/1806Z BECMG 1712/1714 6000 NSW BECMG 1716/1718 33010KT 3000 -SN BKN010 BKN025 TEMPO 1721/1812 1200 SN BKN005 BKN020
Issued Valid From Valid To
Dec-17 @ 11:00 UTC
(an hour ago)
Dec-17 @ 12:00 UTC
(8 minutes ago)
Dec-18 @ 12:00 UTC
(in 24 hours)
Dec-17 @ 12:00 to Dec-18 @ 12:00
TAF LYNI 171100Z 1712/1812 11004KT 4000 BR SCT015 BKN027 TXM01/1713Z TNM04/1806Z
Wind Visibility Clouds Conditions
110° at 4 knots 4,007 meters
  • Scattered at 1,500' AGL
  • Broken at 2,700' AGL
  • Mist
Becoming Dec-17 @ 12:00 to Dec-17 @ 16:00
BECMG 1712/1714 6000 NSW
Wind Visibility Clouds Conditions
110° at 4 knots 6,003 meters
  • Scattered at 1,500' AGL
  • Broken at 2,700' AGL
Becoming Dec-17 @ 16:00 to Dec-18 @ 12:00
BECMG 1716/1718 33010KT 3000 -SN BKN010 BKN025
Wind Visibility Clouds Conditions
330° at 10 knots 2,993 meters
  • Broken at 1,000' AGL
  • Broken at 2,500' AGL
  • Light Snow
Temporary Dec-17 @ 21:00 to Dec-18 @ 12:00
TEMPO 1721/1812 1200 SN BKN005 BKN020
Visibility Clouds Conditions
1,207 meters
  • Broken at 500' AGL
  • Broken at 2,000' AGL
  • Snow
TAF LYNI 171100Z 1712/1812 11004KT 4000 BR SCT015 BKN027 TXM01/1713Z TNM04/1806Z BECMG 1712/1714 6000 NSW BECMG 1716/1718 33010KT 3000 -SN BKN010 BKN025 TEMPO 1721/1812 1200 SN BKN005 BKN020
Issued Dec-17 @ 11:00 UTC
(an hour ago)
Valid From Dec-17 @ 12:00 UTC
(8 minutes ago)
Valid To Dec-18 @ 12:00 UTC
(in 24 hours)
Dec-17 @ 12:00 - Dec-18 @ 12:00
Wind Visibility
110° at 4 knots 4,007 meters
Clouds
  • Scattered at 1,500' AGL
  • Broken at 2,700' AGL
Conditions
  • Mist
Becoming Dec-17 @ 12:00 - Dec-17 @ 16:00
Wind Visibility
110° at 4 knots 6,003 meters
Clouds
  • Scattered at 1,500' AGL
  • Broken at 2,700' AGL
Conditions
Becoming Dec-17 @ 16:00 - Dec-18 @ 12:00
Wind Visibility
330° at 10 knots 2,993 meters
Clouds
  • Broken at 1,000' AGL
  • Broken at 2,500' AGL
Conditions
  • Light Snow
Temporary Dec-17 @ 21:00 - Dec-18 @ 12:00
Clouds
  • Broken at 500' AGL
  • Broken at 2,000' AGL
Conditions
  • Snow